createdAt,value
2023-02-18T00:00:29.075Z,4.30
2023-02-18T00:02:56.258Z,10.95
2023-02-18T00:05:23.097Z,8.93
2023-02-18T00:07:49.885Z,11.48
2023-02-18T00:10:16.943Z,13.07
2023-02-18T00:12:44.124Z,11.35
2023-02-18T00:15:10.894Z,8.23
2023-02-18T00:17:38.095Z,10.15
2023-02-18T00:20:07.058Z,10.85
2023-02-18T00:22:33.851Z,12.40
2023-02-18T00:25:00.650Z,7.13
2023-02-18T00:27:27.453Z,11.80
2023-02-18T00:29:54.292Z,9.32
2023-02-18T00:32:21.123Z,13.48
2023-02-18T00:34:48.053Z,11.10
2023-02-18T00:37:14.815Z,11.07
2023-02-18T00:39:41.620Z,11.52
2023-02-18T00:42:08.369Z,11.95
2023-02-18T00:44:35.150Z,9.10
2023-02-18T00:47:01.927Z,13.30
2023-02-18T00:49:28.735Z,10.18
2023-02-18T00:51:55.508Z,9.57
2023-02-18T00:54:22.268Z,7.55
2023-02-18T00:56:49.039Z,10.52
2023-02-18T00:59:15.897Z,10.13
2023-02-18T01:01:42.712Z,8.13
2023-02-18T01:04:09.589Z,9.73
2023-02-18T01:06:37.399Z,8.65
2023-02-18T01:09:05.567Z,8.77
2023-02-18T01:11:33.105Z,7.32
2023-02-18T01:13:59.880Z,9.50
2023-02-18T01:16:26.911Z,11.63
2023-02-18T01:18:53.744Z,6.80
2023-02-18T01:21:20.745Z,6.68
2023-02-18T01:23:47.590Z,8.48
2023-02-18T01:26:14.477Z,8.10
2023-02-18T01:28:41.669Z,10.88
2023-02-18T01:31:11.717Z,10.43
2023-02-18T01:33:38.675Z,8.48
2023-02-18T01:36:07.015Z,5.72
2023-02-18T01:38:34.309Z,13.63
2023-02-18T01:41:01.086Z,9.32
2023-02-18T01:43:27.854Z,10.45
2023-02-18T01:46:08.226Z,9.07
2023-02-18T01:48:48.022Z,7.88
2023-02-18T01:51:24.219Z,4.88
2023-02-18T01:54:07.820Z,8.45
2023-02-18T01:56:39.187Z,10.07
2023-02-18T01:59:15.781Z,6.80
2023-02-18T02:01:45.164Z,6.65
2023-02-18T02:04:12.292Z,9.10
2023-02-18T02:06:39.127Z,9.02
2023-02-18T02:09:09.554Z,14.68
2023-02-18T02:12:23.629Z,4.78
2023-02-18T02:15:36.952Z,6.80
2023-02-18T02:18:21.911Z,6.15
2023-02-18T02:21:42.200Z,11.20
2023-02-18T02:24:39.473Z,7.95
2023-02-18T02:27:29.575Z,8.27
2023-02-18T02:30:31.195Z,12.88
2023-02-18T02:33:20.519Z,9.40
2023-02-18T02:36:01.154Z,5.63
2023-02-18T02:38:55.445Z,9.45
2023-02-18T02:41:52.922Z,6.50
2023-02-18T02:44:51.916Z,11.50
2023-02-18T02:47:28.606Z,3.50
2023-02-18T02:50:09.849Z,8.88
2023-02-18T02:52:52.217Z,7.10
2023-02-18T02:55:19.241Z,9.13
2023-02-18T02:57:51.758Z,8.68
2023-02-18T03:00:23.972Z,8.20
2023-02-18T03:03:32.256Z,6.55
2023-02-18T03:06:06.710Z,8.05
2023-02-18T03:08:52.031Z,8.15
2023-02-18T03:11:19.258Z,8.60
2023-02-18T03:14:18.460Z,8.07
2023-02-18T03:17:00.097Z,11.02
2023-02-18T03:19:47.570Z,6.70
2023-02-18T03:22:25.964Z,9.18
2023-02-18T03:24:56.674Z,6.38
2023-02-18T03:27:26.259Z,5.97
2023-02-18T03:30:08.323Z,8.15
2023-02-18T03:32:36.137Z,7.53
2023-02-18T03:35:10.206Z,9.80
2023-02-18T03:37:44.864Z,8.27
2023-02-18T03:40:12.201Z,6.80
2023-02-18T03:42:38.996Z,11.10
2023-02-18T03:45:06.066Z,7.18
2023-02-18T03:47:33.160Z,8.93
2023-02-18T03:49:59.909Z,12.48
2023-02-18T03:52:26.669Z,6.70
2023-02-18T03:54:53.437Z,11.50
2023-02-18T03:57:20.203Z,6.80
2023-02-18T03:59:46.980Z,9.45
2023-02-18T04:02:13.747Z,6.78
2023-02-18T04:04:40.537Z,8.13
2023-02-18T04:07:07.426Z,9.05
2023-02-18T04:09:34.193Z,10.85
2023-02-18T04:12:00.980Z,12.52
2023-02-18T04:14:27.767Z,9.80
2023-02-18T04:16:54.612Z,6.60
2023-02-18T04:19:21.428Z,15.27
2023-02-18T04:21:48.239Z,12.20
2023-02-18T04:24:15.024Z,12.15
2023-02-18T04:26:41.871Z,9.65
2023-02-18T04:29:08.683Z,10.38
2023-02-18T04:31:35.579Z,13.05
2023-02-18T04:34:02.436Z,13.95
2023-02-18T04:36:29.276Z,14.90
2023-02-18T04:38:56.128Z,9.85
2023-02-18T04:41:22.917Z,17.25
2023-02-18T04:43:49.738Z,14.85
2023-02-18T04:46:16.607Z,19.02
2023-02-18T04:48:43.455Z,23.00
2023-02-18T04:51:10.291Z,19.67
2023-02-18T04:53:37.055Z,23.10
2023-02-18T04:56:04.166Z,15.35
2023-02-18T04:58:30.949Z,18.20
2023-02-18T05:01:03.054Z,24.02
2023-02-18T05:03:30.387Z,15.85
2023-02-18T05:05:57.347Z,14.95
2023-02-18T05:08:24.136Z,13.50
2023-02-18T05:10:50.981Z,14.75
2023-02-18T05:13:18.038Z,15.63
2023-02-18T05:15:44.824Z,10.25
2023-02-18T05:18:11.636Z,10.45
2023-02-18T05:20:38.408Z,18.80
2023-02-18T05:23:05.207Z,10.50
2023-02-18T05:25:32.130Z,12.05
2023-02-18T05:27:58.889Z,11.55
2023-02-18T05:30:25.684Z,16.48
2023-02-18T05:32:52.508Z,14.27
2023-02-18T05:35:19.277Z,12.05
2023-02-18T05:37:46.055Z,12.98
2023-02-18T05:40:12.903Z,14.10
2023-02-18T05:42:39.694Z,12.48
2023-02-18T05:45:07.646Z,11.30
2023-02-18T05:47:34.437Z,10.93
2023-02-18T05:50:01.222Z,14.13
2023-02-18T05:52:28.122Z,11.90
2023-02-18T05:54:54.984Z,14.73
2023-02-18T05:57:21.765Z,10.48
2023-02-18T05:59:48.538Z,10.27
2023-02-18T06:02:15.334Z,13.57
2023-02-18T06:04:42.118Z,15.35
2023-02-18T06:07:08.907Z,16.50
2023-02-18T06:09:35.713Z,8.90
2023-02-18T06:12:02.513Z,14.50
2023-02-18T06:14:29.288Z,13.00
2023-02-18T06:16:56.065Z,8.30
2023-02-18T06:19:23.229Z,9.93
2023-02-18T06:21:50.039Z,7.40
2023-02-18T06:24:16.924Z,12.93
2023-02-18T06:26:43.683Z,11.50
2023-02-18T06:29:10.473Z,8.27
2023-02-18T06:31:37.351Z,8.38
2023-02-18T06:34:04.168Z,10.20
2023-02-18T06:36:31.043Z,15.20
2023-02-18T06:38:59.206Z,7.00
2023-02-18T06:41:25.959Z,12.30
2023-02-18T06:43:52.736Z,10.23
2023-02-18T06:46:19.565Z,10.32
2023-02-18T06:48:46.463Z,10.02
2023-02-18T06:51:13.231Z,11.43
2023-02-18T06:53:40.039Z,9.98
2023-02-18T06:56:07.214Z,12.35
2023-02-18T06:58:34.198Z,11.35
2023-02-18T07:01:01.000Z,9.85
2023-02-18T07:03:28.132Z,10.90
2023-02-18T07:05:56.216Z,11.68
2023-02-18T07:08:23.149Z,10.48
2023-02-18T07:10:49.997Z,11.73
2023-02-18T07:13:16.809Z,12.93
2023-02-18T07:15:43.572Z,10.93
2023-02-18T07:18:10.463Z,11.95
2023-02-18T07:20:37.297Z,15.10
2023-02-18T07:23:04.156Z,14.07
2023-02-18T07:25:31.020Z,15.00
2023-02-18T07:27:57.793Z,16.45
2023-02-18T07:30:24.748Z,15.48
2023-02-18T07:32:51.568Z,15.30
2023-02-18T07:35:18.399Z,16.77
2023-02-18T07:37:50.290Z,22.67
2023-02-18T07:40:22.045Z,19.50
2023-02-18T07:42:49.479Z,16.35
2023-02-18T07:45:16.279Z,20.73
2023-02-18T07:47:47.887Z,17.83
2023-02-18T07:50:14.746Z,17.88
2023-02-18T07:52:41.722Z,19.20
2023-02-18T07:55:08.992Z,17.58
2023-02-18T07:57:55.763Z,17.63
2023-02-18T08:00:22.965Z,16.27
2023-02-18T08:02:49.777Z,17.33
2023-02-18T08:05:16.605Z,20.77
2023-02-18T08:07:43.569Z,18.88
2023-02-18T08:10:10.497Z,21.80
2023-02-18T08:12:37.369Z,21.60
2023-02-18T08:15:08.106Z,20.40
2023-02-18T08:17:35.227Z,20.08
2023-02-18T08:20:02.298Z,19.13
2023-02-18T08:22:29.204Z,18.08
2023-02-18T08:24:56.364Z,25.08
2023-02-18T08:27:24.195Z,23.42
2023-02-18T08:29:51.549Z,19.88
2023-02-18T08:32:18.335Z,20.30
2023-02-18T08:34:45.110Z,20.38
2023-02-18T08:37:11.956Z,17.80
2023-02-18T08:39:39.887Z,20.48
2023-02-18T08:42:07.048Z,19.40
2023-02-18T08:44:33.859Z,19.08
2023-02-18T08:47:00.656Z,16.33
2023-02-18T08:49:27.424Z,16.42
2023-02-18T08:51:55.098Z,12.82
2023-02-18T08:54:21.907Z,11.57
2023-02-18T08:56:48.700Z,10.85
2023-02-18T08:59:15.798Z,11.02
2023-02-18T09:01:42.713Z,7.57
2023-02-18T09:04:09.626Z,7.50
2023-02-18T09:06:40.235Z,6.60
2023-02-18T09:09:07.414Z,6.93
2023-02-18T09:11:34.655Z,4.47
2023-02-18T09:14:01.518Z,4.18
2023-02-18T09:16:29.888Z,3.55
2023-02-18T09:18:58.697Z,3.00
2023-02-18T09:21:26.774Z,3.13
2023-02-18T09:23:53.596Z,2.85
2023-02-18T09:26:23.217Z,3.28
2023-02-18T09:28:51.808Z,3.45
2023-02-18T09:31:27.223Z,4.00
2023-02-18T09:34:01.571Z,2.55
2023-02-18T09:36:28.986Z,1.95
2023-02-18T09:38:55.837Z,2.25
2023-02-18T09:41:53.645Z,2.80
2023-02-18T09:44:31.251Z,2.75
2023-02-18T09:47:02.628Z,1.77
2023-02-18T09:49:37.244Z,2.83
2023-02-18T09:52:29.872Z,0.98
2023-02-18T09:54:56.831Z,1.23
2023-02-18T09:57:35.375Z,1.17
2023-02-18T10:00:34.967Z,0.70
2023-02-18T10:03:23.960Z,0.68
2023-02-18T10:06:01.672Z,0.80
2023-02-18T10:08:43.394Z,0.98
2023-02-18T10:11:23.401Z,0.60
2023-02-18T10:13:57.516Z,1.25
2023-02-18T10:16:25.706Z,1.20
2023-02-18T10:18:57.927Z,0.45
2023-02-18T10:21:32.894Z,0.40
2023-02-18T10:24:12.729Z,0.55
2023-02-18T10:26:40.398Z,0.60
2023-02-18T10:29:18.088Z,0.60
2023-02-18T10:32:08.588Z,0.65
2023-02-18T10:34:54.017Z,0.85
2023-02-18T10:38:08.335Z,0.70
2023-02-18T10:41:03.448Z,0.90
2023-02-18T10:44:18.361Z,1.75
2023-02-18T10:47:11.830Z,0.70
2023-02-18T10:49:50.342Z,1.17
2023-02-18T10:52:19.069Z,0.40
2023-02-18T10:55:06.541Z,2.40
2023-02-18T10:57:34.009Z,0.52
2023-02-18T11:00:25.172Z,1.35
2023-02-18T11:03:18.471Z,0.35
2023-02-18T11:06:07.227Z,2.25
2023-02-18T11:08:44.002Z,0.82
2023-02-18T11:11:23.599Z,1.00
2023-02-18T11:13:57.387Z,2.60
2023-02-18T11:16:37.754Z,1.25
2023-02-18T11:19:04.887Z,0.85
2023-02-18T11:21:38.757Z,0.70
2023-02-18T11:24:16.690Z,0.60
2023-02-18T11:26:46.154Z,0.43
2023-02-18T11:29:24.547Z,0.20
2023-02-18T11:31:55.823Z,1.50
2023-02-18T11:34:34.084Z,0.90
2023-02-18T11:37:21.869Z,0.63
2023-02-18T11:39:53.383Z,1.15
2023-02-18T11:42:25.164Z,1.27
2023-02-18T11:44:55.782Z,0.95
2023-02-18T11:47:28.371Z,0.80
2023-02-18T11:50:14.747Z,2.00
2023-02-18T11:52:47.634Z,0.80
2023-02-18T11:55:18.404Z,0.73
2023-02-18T11:57:50.505Z,1.15
2023-02-18T12:00:35.613Z,1.67
2023-02-18T12:03:13.786Z,4.45
2023-02-18T12:05:42.107Z,1.15
2023-02-18T12:08:25.734Z,1.10
2023-02-18T12:11:01.568Z,1.53
2023-02-18T12:13:39.554Z,0.70
2023-02-18T12:16:32.312Z,1.65
2023-02-18T12:19:37.067Z,2.75
2023-02-18T12:22:38.765Z,0.60
2023-02-18T12:25:40.293Z,2.15
2023-02-18T12:28:51.313Z,1.27
2023-02-18T12:31:46.392Z,1.35
2023-02-18T12:34:34.812Z,1.52
2023-02-18T12:37:30.599Z,0.80
2023-02-18T12:40:18.997Z,2.15
2023-02-18T12:43:39.057Z,2.33
2023-02-18T12:46:22.424Z,1.60
2023-02-18T12:49:18.967Z,2.28
2023-02-18T12:52:18.846Z,1.30
2023-02-18T12:55:42.183Z,1.25
2023-02-18T12:58:45.332Z,2.33
2023-02-18T13:01:42.101Z,3.63
2023-02-18T13:04:36.635Z,3.67
2023-02-18T13:07:32.903Z,2.00
2023-02-18T13:10:37.992Z,2.45
2023-02-18T13:13:17.541Z,1.75
2023-02-18T13:16:04.346Z,2.03
2023-02-18T13:18:38.014Z,2.35
2023-02-18T13:21:07.929Z,2.30
2023-02-18T13:23:52.416Z,3.35
2023-02-18T13:26:21.365Z,4.45
2023-02-18T13:29:32.660Z,3.13
2023-02-18T13:32:25.048Z,1.58
2023-02-18T13:35:04.617Z,3.03
2023-02-18T13:38:17.343Z,7.07
2023-02-18T13:40:44.484Z,3.00
2023-02-18T13:43:35.239Z,2.70
2023-02-18T13:46:08.938Z,3.17
2023-02-18T13:48:44.704Z,2.80
2023-02-18T13:51:34.173Z,2.30
2023-02-18T13:54:09.708Z,2.50
2023-02-18T13:56:43.537Z,2.78
2023-02-18T13:59:21.895Z,1.85
2023-02-18T14:01:51.173Z,3.15
2023-02-18T14:04:41.693Z,3.20
2023-02-18T14:07:33.370Z,2.05
2023-02-18T14:10:22.700Z,2.17
2023-02-18T14:12:58.852Z,1.40
2023-02-18T14:15:25.626Z,2.58
2023-02-18T14:18:13.672Z,2.70
2023-02-18T14:20:40.429Z,1.42
2023-02-18T14:23:38.326Z,2.80
2023-02-18T14:26:12.286Z,4.47
2023-02-18T14:28:47.139Z,2.63
2023-02-18T14:31:14.263Z,2.83
2023-02-18T14:33:51.532Z,3.15
2023-02-18T14:36:36.759Z,5.07
2023-02-18T14:39:45.486Z,4.68
2023-02-18T14:43:08.148Z,1.73
2023-02-18T14:45:59.150Z,2.10
2023-02-18T14:49:11.204Z,4.00
2023-02-18T14:51:42.035Z,2.83
2023-02-18T14:54:16.221Z,3.10
2023-02-18T14:56:59.348Z,3.60
2023-02-18T14:59:30.475Z,6.72
2023-02-18T15:01:57.855Z,5.20
2023-02-18T15:04:26.497Z,3.67
2023-02-18T15:07:02.220Z,5.65
2023-02-18T15:09:29.642Z,6.32
2023-02-18T15:12:06.660Z,2.60
2023-02-18T15:14:42.478Z,5.95
2023-02-18T15:17:19.320Z,7.47
2023-02-18T15:19:55.771Z,7.78
2023-02-18T15:22:26.160Z,9.27
2023-02-18T15:24:55.792Z,6.07
2023-02-18T15:27:32.067Z,6.47
2023-02-18T15:30:22.664Z,5.88
2023-02-18T15:32:55.509Z,8.85
2023-02-18T15:35:29.117Z,7.60
2023-02-18T15:38:17.104Z,4.80
2023-02-18T15:40:48.059Z,6.35
2023-02-18T15:43:22.526Z,9.52
2023-02-18T15:48:48.951Z,6.03
2023-02-18T15:51:25.331Z,5.93
2023-02-18T15:53:57.072Z,7.80
2023-02-18T15:56:35.744Z,7.40
2023-02-18T15:59:19.619Z,9.82
2023-02-18T16:01:53.332Z,5.65
2023-02-18T16:04:32.615Z,7.95
2023-02-18T16:07:05.377Z,6.10
2023-02-18T16:09:42.711Z,8.18
2023-02-18T16:12:29.070Z,11.32
2023-02-18T16:14:58.218Z,10.13
2023-02-18T16:17:37.293Z,4.95
2023-02-18T16:20:37.684Z,4.38
2023-02-18T16:23:14.114Z,7.07
2023-02-18T16:25:48.952Z,10.00
2023-02-18T16:30:58.731Z,8.93
2023-02-18T16:33:25.546Z,7.97
2023-02-18T16:35:52.390Z,8.68
2023-02-18T16:38:22.815Z,8.80
2023-02-18T16:40:50.725Z,7.75
2023-02-18T16:43:21.293Z,11.45
2023-02-18T16:45:59.836Z,13.63
2023-02-18T16:48:40.753Z,8.75
2023-02-18T16:51:15.290Z,9.60
2023-02-18T16:53:42.238Z,9.00
2023-02-18T16:56:25.212Z,6.45
2023-02-18T16:58:52.049Z,11.25
2023-02-18T17:01:34.432Z,7.57
2023-02-18T17:04:02.665Z,9.60
2023-02-18T17:06:30.166Z,9.23
2023-02-18T17:08:57.110Z,8.93
2023-02-18T17:11:31.962Z,6.80
2023-02-18T17:13:59.684Z,10.40
2023-02-18T17:16:27.772Z,7.97
2023-02-18T17:18:54.587Z,7.90
2023-02-18T17:21:24.701Z,10.73
2023-02-18T17:23:52.001Z,7.88
2023-02-18T17:26:22.933Z,12.38
2023-02-18T17:28:49.853Z,8.70
2023-02-18T17:31:27.909Z,8.38
2023-02-18T17:33:56.972Z,6.07
2023-02-18T17:36:23.743Z,9.93
2023-02-18T17:38:50.552Z,11.27
2023-02-18T17:41:17.604Z,9.27
2023-02-18T17:43:44.675Z,7.30
2023-02-18T17:46:14.316Z,9.68
2023-02-18T17:48:41.977Z,11.15
2023-02-18T17:51:24.598Z,8.02
2023-02-18T17:53:51.913Z,11.73
2023-02-18T17:56:18.877Z,8.15
2023-02-18T17:58:46.455Z,6.80
2023-02-18T18:01:13.421Z,11.63
2023-02-18T18:03:40.204Z,12.43
2023-02-18T18:06:17.203Z,10.70
2023-02-18T18:08:44.596Z,7.35
2023-02-18T18:11:20.776Z,5.85
2023-02-18T18:13:54.511Z,6.85
2023-02-18T18:16:21.844Z,10.57
2023-02-18T18:18:48.700Z,12.05
2023-02-18T18:21:38.755Z,8.18
2023-02-18T18:24:05.891Z,9.55
2023-02-18T18:26:32.672Z,9.18
2023-02-18T18:28:59.461Z,8.90
2023-02-18T18:31:26.311Z,7.10
2023-02-18T18:33:53.816Z,6.53
2023-02-18T18:36:23.870Z,8.93
2023-02-18T18:38:50.740Z,8.55
2023-02-18T18:41:20.773Z,5.53
2023-02-18T18:43:49.171Z,7.68
2023-02-18T18:46:15.983Z,7.13
2023-02-18T18:48:42.762Z,11.38
2023-02-18T18:51:18.995Z,13.55
2023-02-18T18:53:45.885Z,8.38
2023-02-18T18:56:13.400Z,9.27
2023-02-18T18:58:40.390Z,7.15
2023-02-18T19:01:20.233Z,9.88
2023-02-18T19:03:48.370Z,7.93
2023-02-18T19:06:16.675Z,6.03
2023-02-18T19:08:45.126Z,5.85
2023-02-18T19:11:13.147Z,9.45
2023-02-18T19:13:40.426Z,7.10
2023-02-18T19:16:25.190Z,5.78
2023-02-18T19:18:52.837Z,5.20
2023-02-18T19:21:19.622Z,8.05
2023-02-18T19:23:46.537Z,8.25
2023-02-18T19:26:15.830Z,7.65
2023-02-18T19:28:44.284Z,6.25
2023-02-18T19:31:11.840Z,8.52
2023-02-18T19:33:39.406Z,13.02
2023-02-18T19:36:11.332Z,7.63
2023-02-18T19:38:38.609Z,8.48
2023-02-18T19:41:14.597Z,9.52
2023-02-18T19:43:42.706Z,10.13
2023-02-18T19:46:15.201Z,7.68
2023-02-18T19:48:42.451Z,6.22
2023-02-18T19:51:10.038Z,8.90
2023-02-18T19:53:37.203Z,9.88
2023-02-18T19:56:07.799Z,8.25
2023-02-18T19:58:35.456Z,7.63
2023-02-18T20:01:02.424Z,5.28
2023-02-18T20:03:29.448Z,6.72
2023-02-18T20:05:56.222Z,8.95
2023-02-18T20:08:23.012Z,10.07
2023-02-18T20:10:59.801Z,4.47
2023-02-18T20:13:27.106Z,7.25
2023-02-18T20:15:54.065Z,13.25
2023-02-18T20:18:20.891Z,12.57
2023-02-18T20:20:49.216Z,10.02
2023-02-18T20:23:16.128Z,7.38
2023-02-18T20:25:42.896Z,11.57
2023-02-18T20:28:09.655Z,10.35
2023-02-18T20:30:36.503Z,11.38
2023-02-18T20:33:03.435Z,6.18
2023-02-18T20:35:30.202Z,8.23
2023-02-18T20:37:56.971Z,10.27
2023-02-18T20:40:23.753Z,9.43
2023-02-18T20:42:50.532Z,10.05
2023-02-18T20:45:17.987Z,9.85
2023-02-18T20:47:45.017Z,13.07
2023-02-18T20:50:11.834Z,12.02
2023-02-18T20:52:38.618Z,12.35
2023-02-18T20:55:05.703Z,12.13
2023-02-18T20:57:32.474Z,7.03
2023-02-18T20:59:59.591Z,7.20
2023-02-18T21:02:26.990Z,3.58
2023-02-18T21:04:53.798Z,2.78
2023-02-18T21:07:22.198Z,2.58
2023-02-18T21:09:49.003Z,3.90
2023-02-18T21:12:15.753Z,3.83
2023-02-18T21:14:42.529Z,5.97
2023-02-18T21:17:09.703Z,4.20
2023-02-18T21:19:36.520Z,5.18
2023-02-18T21:22:03.331Z,2.40
2023-02-18T21:24:31.825Z,3.25
2023-02-18T21:26:58.616Z,3.10
2023-02-18T21:29:26.690Z,2.22
2023-02-18T21:31:53.497Z,4.93
2023-02-18T21:34:21.004Z,5.20
2023-02-18T21:36:48.142Z,3.65
2023-02-18T21:39:14.896Z,4.03
2023-02-18T21:41:41.692Z,4.10
2023-02-18T21:44:09.624Z,2.97
2023-02-18T21:46:37.046Z,4.70
2023-02-18T21:49:12.283Z,3.53
2023-02-18T21:52:02.138Z,9.07
2023-02-18T21:54:55.240Z,2.60
2023-02-18T21:57:22.115Z,6.75
2023-02-18T21:59:49.084Z,5.32
2023-02-18T22:02:23.175Z,8.98
2023-02-18T22:04:50.614Z,9.02
2023-02-18T22:07:19.679Z,5.88
2023-02-18T22:09:48.625Z,4.97
2023-02-18T22:12:16.847Z,8.05
2023-02-18T22:14:44.178Z,8.07
2023-02-18T22:17:11.580Z,9.60
2023-02-18T22:19:38.441Z,8.60
2023-02-18T22:22:05.597Z,7.72
2023-02-18T22:24:32.506Z,10.18
2023-02-18T22:27:01.399Z,8.07
2023-02-18T22:29:30.291Z,6.38
2023-02-18T22:31:57.300Z,11.02
2023-02-18T22:34:24.426Z,8.30
2023-02-18T22:36:51.202Z,6.40
2023-02-18T22:39:18.173Z,7.75
2023-02-18T22:41:44.969Z,5.82
2023-02-18T22:44:15.240Z,8.48
2023-02-18T22:46:42.302Z,5.15
2023-02-18T22:49:09.167Z,6.22
2023-02-18T22:51:39.291Z,7.20
2023-02-18T22:54:10.825Z,5.32
2023-02-18T22:56:37.608Z,4.88
2023-02-18T22:59:04.587Z,7.07
2023-02-18T23:01:37.648Z,6.70
2023-02-18T23:04:09.861Z,7.13
2023-02-18T23:06:38.909Z,9.45
2023-02-18T23:09:07.647Z,7.90
2023-02-18T23:11:34.669Z,10.38
2023-02-18T23:14:19.276Z,12.85
2023-02-18T23:19:53.900Z,7.30
2023-02-18T23:22:37.735Z,6.85
2023-02-18T23:25:05.708Z,6.68
2023-02-18T23:27:32.460Z,6.00
2023-02-18T23:29:59.257Z,5.43
2023-02-18T23:32:27.716Z,5.95
2023-02-18T23:34:54.517Z,6.63
2023-02-18T23:37:43.602Z,4.53
2023-02-18T23:40:13.555Z,7.85
2023-02-18T23:42:40.307Z,5.30
2023-02-18T23:45:07.481Z,7.07
2023-02-18T23:47:34.267Z,8.30
2023-02-18T23:50:01.033Z,7.57
2023-02-18T23:52:27.809Z,4.93
2023-02-18T23:54:54.549Z,5.70
2023-02-18T23:57:21.297Z,4.78
2023-02-18T23:59:48.131Z,6.35
